»·PEaware :: DAL1776 KPHX-KONT

DAL1776 :: KPHX-KONT

FLIGHT INFORMATION

Flight Status: Arrived
Operator:
Delta Air Lines
More flights by this operator :: More flights under this callsign
Pilot: Nehseem A. (13724)
Aircraft: MCDONNELL-DOUGLAS MD-88
(MD88)
More flights by this aircraft type
Origin: KPHX Phoenix Sky Harbor Intl
United States
Destination: KONT Ontario Intl
United States
More flights between these airports :: More routes between these airports
Route: BXK4 PSP SETER5
File this flight plan on PilotEdge
Remarks:
Altitude:
(Current/Filed)
28,000ft
Speed:
(Current/Filed)
469kts
Departed: 20-Sep-17 08:21 AM
Arrived: 20-Sep-17 09:19 AM
Distance/Time
Traveled:
281nm/0:58
Distance/Time
To Go:
Arrived

Flight Plot

Page will automatically refresh every two minutes.

Flight plan parsing failed; only flown route is shown


Map Options




Map Legend


Flown Route
Filed Route
Departure Airport
Arrival Airport
Navaid (VOR, NDB)
Fix

Horizontal Profiles

Position Reports

Time Latitude Longitude Heading Altitude Ground
Speed
20-Sep-17 07:55 33.433682 -112.016479 179 1140ft 0kts
20-Sep-17 07:56 33.433682 -112.016479 179 1140ft 0kts
20-Sep-17 07:57 33.433682 -112.016479 179 1140ft 0kts
20-Sep-17 07:58 33.433682 -112.016479 179 1140ft 0kts
20-Sep-17 07:59 33.433682 -112.016479 179 1140ft 0kts
20-Sep-17 08:00 33.433682 -112.016479 179 1140ft 0kts
20-Sep-17 08:01 33.433682 -112.016479 179 1140ft 0kts
20-Sep-17 08:02 33.433682 -112.016479 179 1140ft 0kts
20-Sep-17 08:03 33.433682 -112.016479 179 1140ft 0kts
20-Sep-17 08:04 33.433682 -112.016479 179 1140ft 0kts
20-Sep-17 08:05 33.433682 -112.016479 179 1140ft 0kts
20-Sep-17 08:06 33.433682 -112.016479 179 1140ft 0kts
20-Sep-17 08:07 33.433682 -112.016479 179 1140ft 0kts
20-Sep-17 08:08 33.433682 -112.016479 179 1140ft 0kts
20-Sep-17 08:09 33.433682 -112.016479 179 1140ft 0kts
20-Sep-17 08:10 33.433682 -112.016479 179 1140ft 0kts
20-Sep-17 08:11 33.433682 -112.016479 179 1140ft 0kts
20-Sep-17 08:12 33.433682 -112.016479 179 1140ft 0kts
20-Sep-17 08:13 33.433682 -112.016479 179 1140ft 0kts
20-Sep-17 08:14 33.433682 -112.016479 179 1140ft 0kts
20-Sep-17 08:15 33.433682 -112.016479 179 1140ft 0kts
20-Sep-17 08:16 33.433682 -112.016479 179 1140ft 0kts
20-Sep-17 08:17 33.433682 -112.016479 179 1140ft 0kts
20-Sep-17 08:18 33.433682 -112.016479 179 1140ft 0kts
20-Sep-17 08:19 33.433682 -112.016479 179 1140ft 0kts
20-Sep-17 08:20 33.432920 -112.017237 264 1140ft 9kts
20-Sep-17 08:21 33.432890 -112.022856 269 1140ft 22kts
20-Sep-17 08:22 33.432224 -112.026969 181 1140ft 0kts
20-Sep-17 08:23 33.432190 -112.026970 181 1140ft 0kts
20-Sep-17 08:24 33.431073 -112.026367 92 1140ft 9kts
20-Sep-17 08:25 33.430993 -111.999570 91 1306ft 163kts
20-Sep-17 08:26 33.433826 -111.940934 86 3567ft 179kts
20-Sep-17 08:27 33.438998 -111.878385 90 5531ft 217kts
20-Sep-17 08:28 33.417221 -111.810268 138 8325ft 235kts
20-Sep-17 08:29 33.359586 -111.807925 231 11162ft 243kts
20-Sep-17 08:30 33.358000 -111.885253 278 14161ft 247kts
20-Sep-17 08:31 33.372126 -111.970544 273 16152ft 274kts
20-Sep-17 08:32 33.380142 -112.062950 273 18428ft 284kts
20-Sep-17 08:33 33.390121 -112.158870 276 20188ft 306kts
20-Sep-17 08:34 33.401408 -112.262125 270 21668ft 329kts
20-Sep-17 08:35 33.410634 -112.374147 274 23485ft 338kts
20-Sep-17 08:36 33.426062 -112.490694 278 24417ft 369kts
20-Sep-17 08:37 33.428228 -112.615049 281 26079ft 366kts
20-Sep-17 08:38 33.444078 -112.731458 274 27866ft 356kts
20-Sep-17 08:39 33.456777 -112.851603 280 27950ft 377kts
20-Sep-17 08:40 33.482637 -112.978789 280 27972ft 409kts
20-Sep-17 08:41 33.509037 -113.115316 280 27963ft 434kts
20-Sep-17 08:42 33.536280 -113.258330 280 27939ft 440kts
20-Sep-17 08:43 33.563025 -113.399927 280 27931ft 435kts
20-Sep-17 08:44 33.589543 -113.541431 280 27932ft 435kts
20-Sep-17 08:45 33.615394 -113.681580 279 27900ft 434kts
20-Sep-17 08:46 33.640982 -113.822647 280 27873ft 434kts
20-Sep-17 08:47 33.665424 -113.964342 278 27873ft 434kts
20-Sep-17 08:48 33.684884 -114.086294 278 27872ft 434kts
20-Sep-17 08:49 33.707659 -114.228423 278 27871ft 434kts
20-Sep-17 08:50 33.730452 -114.370019 279 27871ft 434kts
20-Sep-17 08:51 33.753375 -114.511506 279 27870ft 434kts
20-Sep-17 08:52 33.770817 -114.653042 270 27873ft 432kts
20-Sep-17 08:53 33.776211 -114.795098 269 27874ft 431kts
20-Sep-17 08:54 33.779220 -114.915020 269 27873ft 431kts
20-Sep-17 08:55 33.783189 -115.082843 270 27872ft 429kts
20-Sep-17 08:56 33.785099 -115.200949 270 27871ft 426kts
20-Sep-17 08:57 33.786947 -115.364266 270 25718ft 407kts
20-Sep-17 08:58 33.788047 -115.475147 270 24041ft 389kts
20-Sep-17 08:59 33.809663 -115.593266 292 22844ft 359kts
20-Sep-17 09:00 33.833594 -115.723224 275 21061ft 335kts
20-Sep-17 09:01 33.840352 -115.814770 273 19923ft 329kts
20-Sep-17 09:02 33.846452 -115.925684 273 18718ft 340kts
20-Sep-17 09:03 33.852127 -116.041001 273 17515ft 349kts
20-Sep-17 09:04 33.857658 -116.158091 273 16294ft 350kts
20-Sep-17 09:05 33.862688 -116.267640 273 15763ft 307kts
20-Sep-17 09:06 33.867295 -116.371971 273 16008ft 326kts
20-Sep-17 09:07 33.872000 -116.478096 273 15542ft 319kts
20-Sep-17 09:08 33.876818 -116.587119 273 14138ft 331kts
20-Sep-17 09:09 33.880911 -116.688252 272 13973ft 286kts
20-Sep-17 09:10 33.884570 -116.783240 272 14062ft 296kts
20-Sep-17 09:11 33.888236 -116.883375 270 14100ft 310kts
20-Sep-17 09:12 33.908058 -116.979089 291 12418ft 297kts
20-Sep-17 09:13 33.938027 -117.066805 291 10612ft 284kts
20-Sep-17 09:14 33.967231 -117.149153 291 8852ft 276kts
20-Sep-17 09:15 34.019234 -117.197510 1 7114ft 281kts
20-Sep-17 09:16 34.063359 -117.245326 277 5816ft 236kts
20-Sep-17 09:17 34.049291 -117.312368 274 4171ft 215kts
20-Sep-17 09:18 34.055851 -117.378570 282 4237ft 202kts
20-Sep-17 09:19 34.053104 -117.442539 272 3344ft 181kts
20-Sep-17 09:20 34.054826 -117.495115 268 2236ft 141kts
20-Sep-17 09:21 34.055048 -117.542080 267 1743ft 147kts
20-Sep-17 09:22 34.054946 -117.589051 270 950ft 124kts
20-Sep-17 09:23 34.056745 -117.606738 315 949ft 17kts
20-Sep-17 09:24 34.058011 -117.608254 315 949ft 0kts
20-Sep-17 09:25 34.058138 -117.608073 107 949ft 6kts
20-Sep-17 09:26 34.057998 -117.602582 91 949ft 12kts
20-Sep-17 09:27 34.058416 -117.599653 357 949ft 4kts
20-Sep-17 09:28 34.059434 -117.598514 52 949ft 5kts

Navigation Log

Ident Type
Flight plan parsing failed, navigation log unavailable